sensor_id;sensor_type;location;lat;lon;timestamp;pressure;altitude;pressure_sealevel;temperature;humidity
57412;BME280;43247;52.828;-8.980;2024-01-30T00:00:28;102698.58;;;3.09;78.73
57412;BME280;43247;52.828;-8.980;2024-01-30T00:01:28;102700.56;;;3.11;78.69
57412;BME280;43247;52.828;-8.980;2024-01-30T00:02:28;102698.35;;;3.11;78.60
57412;BME280;43247;52.828;-8.980;2024-01-30T00:03:29;102699.44;;;3.09;78.61
57412;BME280;43247;52.828;-8.980;2024-01-30T00:04:29;102698.73;;;3.09;78.63
57412;BME280;43247;52.828;-8.980;2024-01-30T00:05:30;102699.61;;;3.07;78.61
57412;BME280;43247;52.828;-8.980;2024-01-30T00:06:30;102700.88;;;3.07;78.63
57412;BME280;43247;52.828;-8.980;2024-01-30T00:07:32;102702.72;;;3.05;78.65
57412;BME280;43247;52.828;-8.980;2024-01-30T00:08:31;102703.37;;;3.03;78.66
57412;BME280;43247;52.828;-8.980;2024-01-30T00:09:32;102703.46;;;3.03;78.61
57412;BME280;43247;52.828;-8.980;2024-01-30T00:10:32;102704.86;;;3.00;78.70
57412;BME280;43247;52.828;-8.980;2024-01-30T00:11:33;102703.21;;;3.00;78.62
57412;BME280;43247;52.828;-8.980;2024-01-30T00:12:33;102704.26;;;2.97;78.68
57412;BME280;43247;52.828;-8.980;2024-01-30T00:13:34;102701.69;;;2.95;78.71
57412;BME280;43247;52.828;-8.980;2024-01-30T00:14:34;102705.87;;;2.95;78.73
57412;BME280;43247;52.828;-8.980;2024-01-30T00:15:35;102707.48;;;2.94;78.67
57412;BME280;43247;52.828;-8.980;2024-01-30T00:16:36;102707.33;;;2.93;78.69
57412;BME280;43247;52.828;-8.980;2024-01-30T00:17:37;102710.03;;;2.91;78.72
57412;BME280;43247;52.828;-8.980;2024-01-30T00:18:37;102710.12;;;2.90;78.69
57412;BME280;43247;52.828;-8.980;2024-01-30T00:19:37;102709.07;;;2.89;78.67
57412;BME280;43247;52.828;-8.980;2024-01-30T00:20:38;102709.79;;;2.88;78.71
57412;BME280;43247;52.828;-8.980;2024-01-30T00:21:38;102709.51;;;2.88;78.66
57412;BME280;43247;52.828;-8.980;2024-01-30T00:22:38;102711.31;;;2.87;78.61
57412;BME280;43247;52.828;-8.980;2024-01-30T00:23:38;102712.39;;;2.86;78.56
57412;BME280;43247;52.828;-8.980;2024-01-30T00:24:38;102712.31;;;2.85;78.58
57412;BME280;43247;52.828;-8.980;2024-01-30T00:25:39;102714.80;;;2.86;78.53
57412;BME280;43247;52.828;-8.980;2024-01-30T00:26:39;102713.88;;;2.84;78.55
57412;BME280;43247;52.828;-8.980;2024-01-30T00:27:39;102713.73;;;2.84;78.55
57412;BME280;43247;52.828;-8.980;2024-01-30T00:28:40;102714.86;;;2.85;78.42
57412;BME280;43247;52.828;-8.980;2024-01-30T00:29:41;102715.24;;;2.83;78.50
57412;BME280;43247;52.828;-8.980;2024-01-30T00:30:41;102714.95;;;2.81;78.56
57412;BME280;43247;52.828;-8.980;2024-01-30T00:31:41;102715.05;;;2.83;78.48
57412;BME280;43247;52.828;-8.980;2024-01-30T00:32:42;102716.45;;;2.82;78.49
57412;BME280;43247;52.828;-8.980;2024-01-30T00:33:43;102716.01;;;2.81;78.54
57412;BME280;43247;52.828;-8.980;2024-01-30T00:34:44;102715.18;;;2.79;78.53
57412;BME280;43247;52.828;-8.980;2024-01-30T00:35:44;102716.74;;;2.79;78.54
57412;BME280;43247;52.828;-8.980;2024-01-30T00:36:44;102714.78;;;2.78;78.56
57412;BME280;43247;52.828;-8.980;2024-01-30T00:37:44;102714.55;;;2.77;78.58
57412;BME280;43247;52.828;-8.980;2024-01-30T00:38:45;102712.82;;;2.77;78.54
57412;BME280;43247;52.828;-8.980;2024-01-30T00:39:45;102714.28;;;2.76;78.53
57412;BME280;43247;52.828;-8.980;2024-01-30T00:40:45;102717.03;;;2.75;78.57
57412;BME280;43247;52.828;-8.980;2024-01-30T00:41:46;102718.04;;;2.75;78.59
57412;BME280;43247;52.828;-8.980;2024-01-30T00:42:46;102724.70;;;2.74;78.54
57412;BME280;43247;52.828;-8.980;2024-01-30T00:43:47;102724.98;;;2.73;78.56
57412;BME280;43247;52.828;-8.980;2024-01-30T00:44:48;102722.24;;;2.71;78.50
57412;BME280;43247;52.828;-8.980;2024-01-30T00:45:48;102721.88;;;2.71;78.49
57412;BME280;43247;52.828;-8.980;2024-01-30T00:46:49;102722.13;;;2.71;78.51
57412;BME280;43247;52.828;-8.980;2024-01-30T00:47:49;102722.92;;;2.70;78.54
57412;BME280;43247;52.828;-8.980;2024-01-30T00:48:49;102723.75;;;2.68;78.55
57412;BME280;43247;52.828;-8.980;2024-01-30T00:49:50;102723.03;;;2.67;78.51
57412;BME280;43247;52.828;-8.980;2024-01-30T00:50:51;102722.78;;;2.66;78.52
57412;BME280;43247;52.828;-8.980;2024-01-30T00:51:51;102720.98;;;2.67;78.46
57412;BME280;43247;52.828;-8.980;2024-01-30T00:52:52;102719.46;;;2.65;78.52
57412;BME280;43247;52.828;-8.980;2024-01-30T00:53:52;102723.53;;;2.64;78.54
57412;BME280;43247;52.828;-8.980;2024-01-30T00:54:52;102721.58;;;2.64;78.51
57412;BME280;43247;52.828;-8.980;2024-01-30T00:55:52;102723.69;;;2.64;78.48
57412;BME280;43247;52.828;-8.980;2024-01-30T00:56:52;102724.49;;;2.64;78.43
57412;BME280;43247;52.828;-8.980;2024-01-30T00:57:53;102724.56;;;2.63;78.45
57412;BME280;43247;52.828;-8.980;2024-01-30T00:58:53;102725.08;;;2.62;78.44
57412;BME280;43247;52.828;-8.980;2024-01-30T00:59:53;102725.06;;;2.62;78.41
57412;BME280;43247;52.828;-8.980;2024-01-30T01:00:54;102724.12;;;2.62;78.34
57412;BME280;43247;52.828;-8.980;2024-01-30T01:01:55;102724.47;;;2.60;78.34
57412;BME280;43247;52.828;-8.980;2024-01-30T01:02:55;102725.06;;;2.61;78.32
57412;BME280;43247;52.828;-8.980;2024-01-30T01:03:56;102724.13;;;2.59;78.34
57412;BME280;43247;52.828;-8.980;2024-01-30T01:04:56;102727.93;;;2.58;78.33
57412;BME280;43247;52.828;-8.980;2024-01-30T01:05:57;102726.35;;;2.57;78.32
57412;BME280;43247;52.828;-8.980;2024-01-30T01:06:58;102727.74;;;2.57;78.29
57412;BME280;43247;52.828;-8.980;2024-01-30T01:07:59;102726.54;;;2.56;78.26
57412;BME280;43247;52.828;-8.980;2024-01-30T01:08:59;102726.54;;;2.55;78.34
57412;BME280;43247;52.828;-8.980;2024-01-30T01:09:59;102726.86;;;2.55;78.26
57412;BME280;43247;52.828;-8.980;2024-01-30T01:10:59;102730.90;;;2.55;78.30
57412;BME280;43247;52.828;-8.980;2024-01-30T01:12:00;102732.14;;;2.54;78.32
57412;BME280;43247;52.828;-8.980;2024-01-30T01:13:00;102732.22;;;2.53;78.24
57412;BME280;43247;52.828;-8.980;2024-01-30T01:14:01;102732.29;;;2.52;78.25
57412;BME280;43247;52.828;-8.980;2024-01-30T01:15:01;102730.62;;;2.52;78.30
57412;BME280;43247;52.828;-8.980;2024-01-30T01:16:01;102729.51;;;2.52;78.23
57412;BME280;43247;52.828;-8.980;2024-01-30T01:17:02;102729.48;;;2.51;78.22
57412;BME280;43247;52.828;-8.980;2024-01-30T01:18:03;102729.39;;;2.51;78.22
57412;BME280;43247;52.828;-8.980;2024-01-30T01:19:03;102729.57;;;2.50;78.17
57412;BME280;43247;52.828;-8.980;2024-01-30T01:20:05;102728.59;;;2.50;78.13
57412;BME280;43247;52.828;-8.980;2024-01-30T01:21:04;102731.75;;;2.49;78.14
57412;BME280;43247;52.828;-8.980;2024-01-30T01:22:05;102729.94;;;2.48;78.21
57412;BME280;43247;52.828;-8.980;2024-01-30T01:23:06;102729.12;;;2.46;78.24
57412;BME280;43247;52.828;-8.980;2024-01-30T01:24:06;102725.59;;;2.45;78.21
57412;BME280;43247;52.828;-8.980;2024-01-30T01:25:09;102728.35;;;2.45;78.20
57412;BME280;43247;52.828;-8.980;2024-01-30T01:26:08;102727.68;;;2.46;78.12
57412;BME280;43247;52.828;-8.980;2024-01-30T01:27:08;102730.33;;;2.45;78.18
57412;BME280;43247;52.828;-8.980;2024-01-30T01:28:09;102730.29;;;2.45;78.11
57412;BME280;43247;52.828;-8.980;2024-01-30T01:29:10;102730.93;;;2.44;78.11
57412;BME280;43247;52.828;-8.980;2024-01-30T01:30:11;102731.83;;;2.43;78.12
57412;BME280;43247;52.828;-8.980;2024-01-30T01:31:11;102733.00;;;2.43;78.10
57412;BME280;43247;52.828;-8.980;2024-01-30T01:32:11;102734.92;;;2.42;78.08
57412;BME280;43247;52.828;-8.980;2024-01-30T01:33:11;102734.91;;;2.42;78.04
57412;BME280;43247;52.828;-8.980;2024-01-30T01:34:12;102736.27;;;2.42;78.04
57412;BME280;43247;52.828;-8.980;2024-01-30T01:35:12;102737.88;;;2.40;78.04
57412;BME280;43247;52.828;-8.980;2024-01-30T01:36:13;102736.17;;;2.40;78.04
57412;BME280;43247;52.828;-8.980;2024-01-30T01:37:12;102738.72;;;2.38;78.04
57412;BME280;43247;52.828;-8.980;2024-01-30T01:38:13;102739.72;;;2.38;78.03
57412;BME280;43247;52.828;-8.980;2024-01-30T01:39:13;102739.80;;;2.37;77.99
57412;BME280;43247;52.828;-8.980;2024-01-30T01:40:14;102740.99;;;2.37;77.97
57412;BME280;43247;52.828;-8.980;2024-01-30T01:41:15;102742.02;;;2.37;77.98
57412;BME280;43247;52.828;-8.980;2024-01-30T01:42:15;102744.03;;;2.35;78.00
57412;BME280;43247;52.828;-8.980;2024-01-30T01:43:15;102744.27;;;2.35;78.00
57412;BME280;43247;52.828;-8.980;2024-01-30T01:44:15;102743.85;;;2.33;78.05
57412;BME280;43247;52.828;-8.980;2024-01-30T01:45:16;102743.15;;;2.33;78.05
57412;BME280;43247;52.828;-8.980;2024-01-30T01:46:17;102744.67;;;2.33;77.98
57412;BME280;43247;52.828;-8.980;2024-01-30T01:47:17;102747.49;;;2.32;77.97
57412;BME280;43247;52.828;-8.980;2024-01-30T01:48:18;102747.39;;;2.31;77.97
57412;BME280;43247;52.828;-8.980;2024-01-30T01:49:18;102748.27;;;2.31;77.94
57412;BME280;43247;52.828;-8.980;2024-01-30T01:50:20;102749.75;;;2.30;77.91
57412;BME280;43247;52.828;-8.980;2024-01-30T01:51:19;102749.68;;;2.30;77.88
57412;BME280;43247;52.828;-8.980;2024-01-30T01:52:19;102751.67;;;2.29;77.91
57412;BME280;43247;52.828;-8.980;2024-01-30T01:53:20;102750.82;;;2.28;77.93
57412;BME280;43247;52.828;-8.980;2024-01-30T01:54:20;102749.90;;;2.28;77.87
57412;BME280;43247;52.828;-8.980;2024-01-30T01:55:21;102753.69;;;2.27;77.87
57412;BME280;43247;52.828;-8.980;2024-01-30T01:56:22;102755.26;;;2.28;77.83
57412;BME280;43247;52.828;-8.980;2024-01-30T01:57:23;102755.48;;;2.27;77.84
57412;BME280;43247;52.828;-8.980;2024-01-30T01:58:22;102758.32;;;2.25;77.92
57412;BME280;43247;52.828;-8.980;2024-01-30T01:59:24;102756.43;;;2.25;77.90
57412;BME280;43247;52.828;-8.980;2024-01-30T02:00:24;102756.32;;;2.25;77.84
57412;BME280;43247;52.828;-8.980;2024-01-30T02:01:25;102758.94;;;2.24;77.87
57412;BME280;43247;52.828;-8.980;2024-01-30T02:02:26;102756.58;;;2.23;77.87
57412;BME280;43247;52.828;-8.980;2024-01-30T02:03:25;102757.43;;;2.22;77.84
57412;BME280;43247;52.828;-8.980;2024-01-30T02:04:26;102757.45;;;2.22;77.75
57412;BME280;43247;52.828;-8.980;2024-01-30T02:05:26;102756.20;;;2.22;77.92
57412;BME280;43247;52.828;-8.980;2024-01-30T02:06:26;102751.64;;;2.20;78.16
57412;BME280;43247;52.828;-8.980;2024-01-30T02:07:27;102750.49;;;2.20;78.18
57412;BME280;43247;52.828;-8.980;2024-01-30T02:08:27;102747.19;;;2.21;78.03
57412;BME280;43247;52.828;-8.980;2024-01-30T02:09:28;102748.79;;;2.20;77.87
57412;BME280;43247;52.828;-8.980;2024-01-30T02:10:28;102749.27;;;2.18;77.79
57412;BME280;43247;52.828;-8.980;2024-01-30T02:11:29;102749.91;;;2.19;77.65
57412;BME280;43247;52.828;-8.980;2024-01-30T02:12:29;102750.00;;;2.20;77.52
57412;BME280;43247;52.828;-8.980;2024-01-30T02:13:30;102748.73;;;2.18;77.47
57412;BME280;43247;52.828;-8.980;2024-01-30T02:14:31;102750.41;;;2.17;77.41
57412;BME280;43247;52.828;-8.980;2024-01-30T02:15:31;102745.91;;;2.19;77.31
57412;BME280;43247;52.828;-8.980;2024-01-30T02:16:32;102743.96;;;2.19;77.24
57412;BME280;43247;52.828;-8.980;2024-01-30T02:17:33;102747.35;;;2.18;77.25
57412;BME280;43247;52.828;-8.980;2024-01-30T02:18:34;102748.95;;;2.17;77.24
57412;BME280;43247;52.828;-8.980;2024-01-30T02:19:34;102747.71;;;2.18;77.17
57412;BME280;43247;52.828;-8.980;2024-01-30T02:20:35;102751.32;;;2.17;77.16
57412;BME280;43247;52.828;-8.980;2024-01-30T02:21:36;102751.86;;;2.19;77.10
57412;BME280;43247;52.828;-8.980;2024-01-30T02:22:37;102750.67;;;2.18;77.20
57412;BME280;43247;52.828;-8.980;2024-01-30T02:23:38;102750.80;;;2.17;77.26
57412;BME280;43247;52.828;-8.980;2024-01-30T02:24:38;102750.42;;;2.18;77.24
57412;BME280;43247;52.828;-8.980;2024-01-30T02:25:40;102751.02;;;2.17;77.27
57412;BME280;43247;52.828;-8.980;2024-01-30T02:26:39;102753.28;;;2.17;77.28
57412;BME280;43247;52.828;-8.980;2024-01-30T02:27:39;102756.03;;;2.18;77.27
57412;BME280;43247;52.828;-8.980;2024-01-30T02:28:40;102760.12;;;2.18;77.30
57412;BME280;43247;52.828;-8.980;2024-01-30T02:29:40;102758.50;;;2.19;77.25
57412;BME280;43247;52.828;-8.980;2024-01-30T02:30:42;102757.83;;;2.20;77.24
57412;BME280;43247;52.828;-8.980;2024-01-30T02:31:41;102758.50;;;2.19;77.32
57412;BME280;43247;52.828;-8.980;2024-01-30T02:32:41;102761.00;;;2.20;77.37
57412;BME280;43247;52.828;-8.980;2024-01-30T02:33:42;102761.81;;;2.19;77.48
57412;BME280;43247;52.828;-8.980;2024-01-30T02:34:43;102759.85;;;2.20;77.49
57412;BME280;43247;52.828;-8.980;2024-01-30T02:35:43;102760.66;;;2.19;77.55
57412;BME280;43247;52.828;-8.980;2024-01-30T02:36:44;102760.54;;;2.20;77.52
57412;BME280;43247;52.828;-8.980;2024-01-30T02:37:45;102764.76;;;2.20;77.59
57412;BME280;43247;52.828;-8.980;2024-01-30T02:38:46;102767.22;;;2.21;77.60
57412;BME280;43247;52.828;-8.980;2024-01-30T02:39:46;102763.33;;;2.21;77.69
57412;BME280;43247;52.828;-8.980;2024-01-30T02:40:47;102762.94;;;2.21;77.74
57412;BME280;43247;52.828;-8.980;2024-01-30T02:41:47;102764.95;;;2.22;77.79
57412;BME280;43247;52.828;-8.980;2024-01-30T02:42:48;102764.28;;;2.22;77.84
57412;BME280;43247;52.828;-8.980;2024-01-30T02:43:48;102762.31;;;2.27;78.22
57412;BME280;43247;52.828;-8.980;2024-01-30T02:44:49;102762.53;;;2.30;78.40
57412;BME280;43247;52.828;-8.980;2024-01-30T02:45:49;102763.98;;;2.39;78.00
57412;BME280;43247;52.828;-8.980;2024-01-30T02:46:50;102764.46;;;2.45;77.49
57412;BME280;43247;52.828;-8.980;2024-01-30T02:47:50;102767.21;;;2.50;77.11
57412;BME280;43247;52.828;-8.980;2024-01-30T02:48:51;102767.64;;;2.55;76.81
57412;BME280;43247;52.828;-8.980;2024-01-30T02:49:52;102768.03;;;2.56;76.71
57412;BME280;43247;52.828;-8.980;2024-01-30T02:50:52;102766.51;;;2.59;76.62
57412;BME280;43247;52.828;-8.980;2024-01-30T02:51:54;102767.25;;;2.62;76.58
57412;BME280;43247;52.828;-8.980;2024-01-30T02:52:52;102768.13;;;2.64;76.48
57412;BME280;43247;52.828;-8.980;2024-01-30T02:53:53;102768.73;;;2.64;76.50
57412;BME280;43247;52.828;-8.980;2024-01-30T02:54:54;102768.79;;;2.65;76.54
57412;BME280;43247;52.828;-8.980;2024-01-30T02:55:54;102764.39;;;2.64;76.57
57412;BME280;43247;52.828;-8.980;2024-01-30T02:56:55;102761.94;;;2.67;76.56
57412;BME280;43247;52.828;-8.980;2024-01-30T02:57:55;102762.05;;;2.66;76.60
57412;BME280;43247;52.828;-8.980;2024-01-30T02:58:56;102762.85;;;2.67;76.63
57412;BME280;43247;52.828;-8.980;2024-01-30T02:59:56;102764.95;;;2.67;76.68
57412;BME280;43247;52.828;-8.980;2024-01-30T03:00:56;102764.67;;;2.67;76.73
57412;BME280;43247;52.828;-8.980;2024-01-30T03:01:57;102765.74;;;2.67;76.68
57412;BME280;43247;52.828;-8.980;2024-01-30T03:02:57;102768.05;;;2.65;76.68
57412;BME280;43247;52.828;-8.980;2024-01-30T03:03:58;102765.74;;;2.66;76.68
57412;BME280;43247;52.828;-8.980;2024-01-30T03:04:58;102766.70;;;2.64;76.87
57412;BME280;43247;52.828;-8.980;2024-01-30T03:05:58;102765.11;;;2.65;76.91
57412;BME280;43247;52.828;-8.980;2024-01-30T03:06:58;102764.85;;;2.64;76.97
57412;BME280;43247;52.828;-8.980;2024-01-30T03:07:59;102763.97;;;2.66;76.97
57412;BME280;43247;52.828;-8.980;2024-01-30T03:08:59;102766.34;;;2.64;77.06
57412;BME280;43247;52.828;-8.980;2024-01-30T03:10:00;102765.76;;;2.61;77.23
57412;BME280;43247;52.828;-8.980;2024-01-30T03:11:00;102768.83;;;2.61;77.29
57412;BME280;43247;52.828;-8.980;2024-01-30T03:12:00;102769.86;;;2.59;77.41
57412;BME280;43247;52.828;-8.980;2024-01-30T03:13:00;102771.56;;;2.57;77.54
57412;BME280;43247;52.828;-8.980;2024-01-30T03:14:01;102770.75;;;2.56;77.64
57412;BME280;43247;52.828;-8.980;2024-01-30T03:15:01;102774.91;;;2.58;77.67
57412;BME280;43247;52.828;-8.980;2024-01-30T03:16:02;102777.13;;;2.55;77.83
57412;BME280;43247;52.828;-8.980;2024-01-30T03:17:02;102775.14;;;2.54;77.88
57412;BME280;43247;52.828;-8.980;2024-01-30T03:18:03;102776.24;;;2.55;77.88
57412;BME280;43247;52.828;-8.980;2024-01-30T03:19:03;102776.39;;;2.55;77.91
57412;BME280;43247;52.828;-8.980;2024-01-30T03:20:04;102774.41;;;2.55;77.98
57412;BME280;43247;52.828;-8.980;2024-01-30T03:21:04;102774.15;;;2.55;78.04
57412;BME280;43247;52.828;-8.980;2024-01-30T03:22:04;102774.79;;;2.54;78.13
57412;BME280;43247;52.828;-8.980;2024-01-30T03:23:04;102775.16;;;2.54;78.16
57412;BME280;43247;52.828;-8.980;2024-01-30T03:24:05;102775.15;;;2.56;78.12
57412;BME280;43247;52.828;-8.980;2024-01-30T03:25:06;102772.74;;;2.54;78.26
57412;BME280;43247;52.828;-8.980;2024-01-30T03:26:06;102772.68;;;2.54;78.31
57412;BME280;43247;52.828;-8.980;2024-01-30T03:27:06;102772.92;;;2.54;78.33
57412;BME280;43247;52.828;-8.980;2024-01-30T03:28:06;102778.46;;;2.55;78.36
57412;BME280;43247;52.828;-8.980;2024-01-30T03:29:06;102779.19;;;2.54;78.41
57412;BME280;43247;52.828;-8.980;2024-01-30T03:30:08;102776.50;;;2.56;78.41
57412;BME280;43247;52.828;-8.980;2024-01-30T03:31:07;102777.86;;;2.53;78.54
57412;BME280;43247;52.828;-8.980;2024-01-30T03:32:07;102781.44;;;2.52;78.61
57412;BME280;43247;52.828;-8.980;2024-01-30T03:33:08;102781.71;;;2.52;78.67
57412;BME280;43247;52.828;-8.980;2024-01-30T03:34:08;102787.05;;;2.51;78.73
57412;BME280;43247;52.828;-8.980;2024-01-30T03:35:09;102785.51;;;2.52;78.71
57412;BME280;43247;52.828;-8.980;2024-01-30T03:36:10;102785.71;;;2.52;78.76
57412;BME280;43247;52.828;-8.980;2024-01-30T03:37:09;102786.67;;;2.51;78.83
57412;BME280;43247;52.828;-8.980;2024-01-30T03:38:09;102785.97;;;2.51;78.82
57412;BME280;43247;52.828;-8.980;2024-01-30T03:39:10;102786.98;;;2.51;78.83
57412;BME280;43247;52.828;-8.980;2024-01-30T03:40:11;102785.92;;;2.51;78.84
57412;BME280;43247;52.828;-8.980;2024-01-30T03:41:10;102783.88;;;2.51;78.83
57412;BME280;43247;52.828;-8.980;2024-01-30T03:42:10;102781.63;;;2.50;78.85
57412;BME280;43247;52.828;-8.980;2024-01-30T03:43:11;102781.05;;;2.50;78.86
57412;BME280;43247;52.828;-8.980;2024-01-30T03:44:11;102781.38;;;2.51;78.86
57412;BME280;43247;52.828;-8.980;2024-01-30T03:45:12;102783.25;;;2.53;78.83
57412;BME280;43247;52.828;-8.980;2024-01-30T03:46:12;102782.74;;;2.52;78.87
57412;BME280;43247;52.828;-8.980;2024-01-30T03:47:12;102784.38;;;2.51;78.90
57412;BME280;43247;52.828;-8.980;2024-01-30T03:48:13;102785.86;;;2.51;78.95
57412;BME280;43247;52.828;-8.980;2024-01-30T03:49:13;102782.66;;;2.51;78.96
57412;BME280;43247;52.828;-8.980;2024-01-30T03:50:13;102781.61;;;2.51;78.96
57412;BME280;43247;52.828;-8.980;2024-01-30T03:51:14;102783.20;;;2.50;79.05
57412;BME280;43247;52.828;-8.980;2024-01-30T03:52:14;102786.99;;;2.50;79.08
57412;BME280;43247;52.828;-8.980;2024-01-30T03:53:14;102788.29;;;2.51;79.08
57412;BME280;43247;52.828;-8.980;2024-01-30T03:54:15;102792.12;;;2.52;79.10
57412;BME280;43247;52.828;-8.980;2024-01-30T03:55:15;102794.44;;;2.51;79.14
57412;BME280;43247;52.828;-8.980;2024-01-30T03:56:16;102791.20;;;2.53;79.11
57412;BME280;43247;52.828;-8.980;2024-01-30T03:57:17;102792.16;;;2.50;79.21
57412;BME280;43247;52.828;-8.980;2024-01-30T03:58:17;102788.57;;;2.52;79.19
57412;BME280;43247;52.828;-8.980;2024-01-30T03:59:17;102785.69;;;2.61;79.41
57412;BME280;43247;52.828;-8.980;2024-01-30T04:00:17;102788.85;;;2.64;79.92
57412;BME280;43247;52.828;-8.980;2024-01-30T04:01:18;102793.23;;;2.70;79.71
57412;BME280;43247;52.828;-8.980;2024-01-30T04:02:19;102790.62;;;2.76;79.21
57412;BME280;43247;52.828;-8.980;2024-01-30T04:03:19;102793.33;;;2.81;78.75
57412;BME280;43247;52.828;-8.980;2024-01-30T04:04:19;102791.73;;;2.82;78.58
57412;BME280;43247;52.828;-8.980;2024-01-30T04:05:20;102793.63;;;2.84;78.47
57412;BME280;43247;52.828;-8.980;2024-01-30T04:06:20;102791.71;;;2.89;78.38
57412;BME280;43247;52.828;-8.980;2024-01-30T04:07:21;102792.74;;;2.90;78.30
57412;BME280;43247;52.828;-8.980;2024-01-30T04:08:21;102793.76;;;2.92;78.22
57412;BME280;43247;52.828;-8.980;2024-01-30T04:09:22;102795.69;;;2.93;78.18
57412;BME280;43247;52.828;-8.980;2024-01-30T04:10:23;102794.82;;;2.93;78.23
57412;BME280;43247;52.828;-8.980;2024-01-30T04:11:23;102794.63;;;2.92;78.25
57412;BME280;43247;52.828;-8.980;2024-01-30T04:12:23;102791.86;;;2.90;78.30
57412;BME280;43247;52.828;-8.980;2024-01-30T04:13:23;102789.32;;;2.95;78.21
57412;BME280;43247;52.828;-8.980;2024-01-30T04:14:24;102787.72;;;2.93;78.28
57412;BME280;43247;52.828;-8.980;2024-01-30T04:15:24;102785.38;;;2.94;78.26
57412;BME280;43247;52.828;-8.980;2024-01-30T04:16:24;102783.79;;;2.94;78.24
57412;BME280;43247;52.828;-8.980;2024-01-30T04:17:25;102782.32;;;2.93;78.19
57412;BME280;43247;52.828;-8.980;2024-01-30T04:18:25;102783.49;;;2.95;78.12
57412;BME280;43247;52.828;-8.980;2024-01-30T04:19:26;102785.00;;;2.92;78.20
57412;BME280;43247;52.828;-8.980;2024-01-30T04:20:26;102783.65;;;2.92;78.24
57412;BME280;43247;52.828;-8.980;2024-01-30T04:21:26;102782.98;;;2.89;78.35
57412;BME280;43247;52.828;-8.980;2024-01-30T04:22:26;102784.94;;;2.88;78.49
57412;BME280;43247;52.828;-8.980;2024-01-30T04:23:26;102784.78;;;2.87;78.62
57412;BME280;43247;52.828;-8.980;2024-01-30T04:24:27;102786.47;;;2.83;78.82
57412;BME280;43247;52.828;-8.980;2024-01-30T04:25:27;102787.36;;;2.84;78.86
57412;BME280;43247;52.828;-8.980;2024-01-30T04:26:28;102787.90;;;2.85;78.90
57412;BME280;43247;52.828;-8.980;2024-01-30T04:27:28;102790.08;;;2.83;79.00
57412;BME280;43247;52.828;-8.980;2024-01-30T04:28:28;102790.54;;;2.84;78.96
57412;BME280;43247;52.828;-8.980;2024-01-30T04:29:28;102793.58;;;2.83;79.03
57412;BME280;43247;52.828;-8.980;2024-01-30T04:30:28;102793.78;;;2.81;79.21
57412;BME280;43247;52.828;-8.980;2024-01-30T04:31:29;102797.57;;;2.81;79.27
57412;BME280;43247;52.828;-8.980;2024-01-30T04:32:29;102801.64;;;2.82;79.33
57412;BME280;43247;52.828;-8.980;2024-01-30T04:33:29;102803.61;;;2.89;79.54
57412;BME280;43247;52.828;-8.980;2024-01-30T04:34:30;102804.95;;;2.94;79.57
57412;BME280;43247;52.828;-8.980;2024-01-30T04:35:30;102804.44;;;2.99;79.27
57412;BME280;43247;52.828;-8.980;2024-01-30T04:36:31;102802.74;;;3.04;78.99
57412;BME280;43247;52.828;-8.980;2024-01-30T04:37:31;102799.88;;;3.09;78.81
57412;BME280;43247;52.828;-8.980;2024-01-30T04:38:32;102799.06;;;3.11;78.68
57412;BME280;43247;52.828;-8.980;2024-01-30T04:39:33;102800.04;;;3.11;78.65
57412;BME280;43247;52.828;-8.980;2024-01-30T04:40:32;102801.89;;;3.13;78.56
57412;BME280;43247;52.828;-8.980;2024-01-30T04:41:33;102799.66;;;3.14;78.60
57412;BME280;43247;52.828;-8.980;2024-01-30T04:42:33;102801.71;;;3.16;78.57
57412;BME280;43247;52.828;-8.980;2024-01-30T04:43:34;102805.02;;;3.15;78.60
57412;BME280;43247;52.828;-8.980;2024-01-30T04:44:34;102801.79;;;3.16;78.63
57412;BME280;43247;52.828;-8.980;2024-01-30T04:45:34;102800.28;;;3.16;78.62
57412;BME280;43247;52.828;-8.980;2024-01-30T04:46:35;102801.60;;;3.16;78.61
57412;BME280;43247;52.828;-8.980;2024-01-30T04:47:35;102800.29;;;3.15;78.62
57412;BME280;43247;52.828;-8.980;2024-01-30T04:48:35;102800.94;;;3.16;78.63
57412;BME280;43247;52.828;-8.980;2024-01-30T04:49:35;102801.32;;;3.17;78.61
57412;BME280;43247;52.828;-8.980;2024-01-30T04:50:36;102797.90;;;3.15;78.64
57412;BME280;43247;52.828;-8.980;2024-01-30T04:51:36;102797.52;;;3.14;78.67
57412;BME280;43247;52.828;-8.980;2024-01-30T04:52:36;102796.62;;;3.12;78.70
57412;BME280;43247;52.828;-8.980;2024-01-30T04:53:37;102802.20;;;3.09;78.79
57412;BME280;43247;52.828;-8.980;2024-01-30T04:54:37;102806.46;;;3.10;78.76
57412;BME280;43247;52.828;-8.980;2024-01-30T04:55:37;102809.77;;;3.07;78.89
57412;BME280;43247;52.828;-8.980;2024-01-30T04:56:38;102811.80;;;3.06;79.10
57412;BME280;43247;52.828;-8.980;2024-01-30T04:57:39;102808.19;;;3.06;79.16
57412;BME280;43247;52.828;-8.980;2024-01-30T04:58:39;102810.47;;;3.05;79.26
57412;BME280;43247;52.828;-8.980;2024-01-30T04:59:40;102810.67;;;3.01;79.42
57412;BME280;43247;52.828;-8.980;2024-01-30T05:00:41;102810.59;;;3.00;79.49
57412;BME280;43247;52.828;-8.980;2024-01-30T05:01:41;102811.94;;;2.99;79.56
57412;BME280;43247;52.828;-8.980;2024-01-30T05:02:42;102815.53;;;3.01;79.59
57412;BME280;43247;52.828;-8.980;2024-01-30T05:03:42;102814.19;;;2.96;79.79
57412;BME280;43247;52.828;-8.980;2024-01-30T05:04:43;102815.73;;;2.96;79.82
57412;BME280;43247;52.828;-8.980;2024-01-30T05:05:43;102815.96;;;2.95;79.86
57412;BME280;43247;52.828;-8.980;2024-01-30T05:06:43;102814.30;;;2.95;79.87
57412;BME280;43247;52.828;-8.980;2024-01-30T05:07:43;102813.64;;;2.95;79.92
57412;BME280;43247;52.828;-8.980;2024-01-30T05:08:44;102815.29;;;2.94;79.95
57412;BME280;43247;52.828;-8.980;2024-01-30T05:09:44;102822.97;;;2.94;79.99
57412;BME280;43247;52.828;-8.980;2024-01-30T05:10:44;102823.80;;;2.94;80.02
57412;BME280;43247;52.828;-8.980;2024-01-30T05:11:45;102827.64;;;2.93;80.09
57412;BME280;43247;52.828;-8.980;2024-01-30T05:12:45;102827.59;;;2.93;80.14
57412;BME280;43247;52.828;-8.980;2024-01-30T05:13:46;102830.09;;;2.92;80.22
57412;BME280;43247;52.828;-8.980;2024-01-30T05:14:46;102828.10;;;2.92;80.22
57412;BME280;43247;52.828;-8.980;2024-01-30T05:15:47;102826.99;;;2.93;80.24